Latest Coastal Weather Observations for Mandurah

IDW60701

Issued at 1:25 pm WST Monday 24 November 2014 (issued every 10 minutes, with the page automatically refreshed every 10 minutes)

About coastal observations | Map of coastal stations | Coastal observations for WA | Marine services | Other Formats
Station Details ID: 009977 Name: MANDURAH Lat: -32.52 Lon: 115.71 Height: 3.0 m
Data from the previous 72 hours. | See also: Recent months at Mandurah
Date/Time
WST
Temp

°C
Wind Pressure Rain
since 9am
mm
Weather Cloud Vis
km
Sea
Height
m
Swell
Dir
 
Speed
knots
Gust
knots
hPa Trend Height
m
Period
s
Dir
24/01:00pm 22.9 WSW 12 17 1019.8 - 0.0 - - - - - - -
24/12:38pm 22.4 W 15 19 1020.1 - 0.0 - - - - - - -
24/12:30pm 24.2 WSW 4 6 1020.3 - 0.0 - - - - - - -
24/12:00pm 23.1 SSE 4 8 1020.6 - 0.0 - - - - - - -
24/11:30am 22.7 SSE 3 6 1021.0 - 0.0 - - - - - - -
24/11:00am 23.3 ESE 5 9 1021.4 - 0.0 - - - - - - -
24/10:30am 22.2 E 4 8 1021.8 - 0.0 - - - - - - -
24/10:00am 21.9 E 5 11 1022.1 - 0.0 - - - - - - -
24/09:30am 20.4 ESE 5 9 1022.3 - 0.0 - - - - - - -
24/09:00am 18.8 ESE 6 10 1022.6 - 0.0 - - - - - - -
24/08:30am 17.5 ESE 6 9 1022.8 - 0.0 - - - - - - -
24/08:00am 16.4 E 9 13 1023.1 - 0.0 - - - - - - -
24/07:30am 15.0 ESE 8 12 1023.2 - 0.0 - - - - - - -
24/07:00am 13.7 SE 7 10 1023.1 - 0.0 - - - - - - -
24/06:30am 12.4 SE 6 9 1023.0 - 0.0 - - - - - - -
24/06:00am 11.6 SSE 6 9 1022.8 - 0.0 - - - - - - -
24/05:30am 11.5 SE 5 7 1022.6 - 0.0 - - - - - - -
24/05:00am 11.8 SSE 6 9 1022.3 - 0.0 - - - - - - -
24/04:30am 12.0 SSE 7 10 1022.2 - 0.0 - - - - - - -
24/04:00am 12.2 SSE 8 11 1022.1 - 0.0 - - - - - - -
24/03:30am 12.2 SE 7 10 1021.8 - 0.0 - - - - - - -
24/03:00am 12.6 SE 8 12 1021.7 - 0.0 - - - - - - -
24/02:30am 13.0 SSE 9 12 1021.7 - 0.0 - - - - - - -
24/02:00am 13.1 SE 10 13 1021.4 - 0.0 - - - - - - -
24/01:30am 13.2 SE 10 14 1021.3 - 0.0 - - - - - - -
24/01:00am 13.5 SSE 10 14 1021.4 - 0.0 - - - - - - -
24/12:30am 13.7 SSE 12 17 1021.3 - 0.0 - - - - - - -
24/12:00am 14.1 SSE 12 19 1021.3 - 0.0 - - - - - - -
 
Date/Time
WST
Temp

°C
Wind Pressure Rain
since 9am
mm
Weather Cloud Vis
km
Sea
Height
m
Swell
Dir
 
Speed
knots
Gust
knots
hPa Trend Height
m
Period
s
Dir
23/11:30pm 14.4 SSE 12 18 1021.2 - 0.0 - - - - - - -
23/11:00pm 14.8 SSE 12 20 1021.2 - 0.0 - - - - - - -
23/10:30pm 15.0 S 13 20 1021.0 - 0.0 - - - - - - -
23/10:00pm 15.5 S 14 24 1020.9 - 0.0 - - - - - - -
23/09:30pm 16.2 S 14 20 1020.7 - 0.0 - - - - - - -
23/09:00pm 17.0 S 14 23 1020.2 - 0.0 - - - - - - -
23/08:30pm 17.8 S 12 19 1019.7 - 0.0 - - - - - - -
23/08:00pm 18.0 S 12 19 1019.2 - 0.0 - - - - - - -
23/07:30pm 18.2 S 10 16 1018.9 - 0.0 - - - - - - -
23/07:00pm 18.3 SSW 12 18 1018.7 - 0.0 - - - - - - -
23/06:30pm 18.5 SSW 12 17 1018.5 - 0.0 - - - - - - -
23/06:00pm 18.8 SSW 11 18 1018.1 - 0.0 - - - - - - -
23/05:30pm 19.5 SSW 11 18 1017.6 - 0.0 - - - - - - -
23/05:00pm 19.8 SSW 9 14 1017.5 - 0.0 - - - - - - -
23/04:30pm 19.8 S 11 18 1017.4 - 0.0 - - - - - - -
23/04:00pm 20.1 SSW 12 16 1017.4 - 0.0 - - - - - - -
23/03:30pm 20.4 SW 12 18 1017.3 - 0.0 - - - - - - -
23/03:00pm 21.4 SW 10 15 1017.4 - 0.0 - - - - - - -
23/02:30pm 21.4 WSW 13 19 1017.4 - 0.0 - - - - - - -
23/02:00pm 20.8 WSW 14 19 1017.4 - 0.0 - - - - - - -
23/01:30pm 19.8 SW 13 19 1017.5 - 0.0 - - - - - - -
23/01:00pm 20.7 SW 13 22 1017.6 - 0.0 - - - - - - -
23/12:30pm 20.8 S 8 12 1017.6 - 0.0 - - - - - - -
23/12:00pm 19.5 WSW 11 17 1017.7 - 0.0 - - - - - - -
23/11:30am 19.8 WSW 12 17 1017.6 - 0.0 - - - - - - -
23/11:00am 20.5 SW 11 14 1017.8 - 0.0 - - - - - - -
23/10:30am 20.4 S 9 14 1017.6 - 0.0 - - - - - - -
23/10:00am 19.5 S 10 17 1017.6 - 0.0 - - - - - - -
23/09:30am 19.6 SSW 9 14 1017.6 - 0.0 - - - - - - -
23/09:00am 17.5 SW 5 10 1017.7 - 0.0 - - - - - - -
23/08:30am 18.6 SSW 11 18 1017.6 - 0.0 - - - - - - -
23/08:00am 18.4 SSW 13 21 1017.1 - 0.0 - - - - - - -
23/07:30am 18.3 SW 10 15 1016.8 - 0.0 - - - - - - -
23/07:00am 17.5 S 3 5 1016.5 - 0.0 - - - - - - -
23/06:30am 17.3 WSW 5 8 1016.3 - 0.0 - - - - - - -
23/06:00am 16.9 SSW 9 14 1016.1 - 0.0 - - - - - - -
23/05:30am 17.4 SSW 9 16 1015.6 - 0.0 - - - - - - -
23/05:00am 17.6 SW 8 13 1015.0 - 0.0 - - - - - - -
23/04:30am 17.4 SW 10 16 1014.8 - 0.0 - - - - - - -
23/04:00am 17.7 SW 10 17 1014.6 - 0.0 - - - - - - -
23/03:30am 17.5 SW 6 10 1014.5 - 0.0 - - - - - - -
23/03:00am 17.4 SSW 6 10 1014.5 - 0.0 - - - - - - -
23/02:30am 17.6 SW 9 13 1014.5 - 0.0 - - - - - - -
23/02:00am 17.6 SW 7 11 1014.5 - 0.0 - - - - - - -
23/01:30am 17.7 SW 10 15 1014.6 - 0.0 - - - - - - -
23/01:00am 17.7 SW 8 13 1014.7 - 0.0 - - - - - - -
23/12:30am 17.9 SW 8 12 1014.8 - 0.0 - - - - - - -
23/12:00am 17.9 SW 9 14 1015.1 - 0.0 - - - - - - -
 
Date/Time
WST
Temp

°C
Wind Pressure Rain
since 9am
mm
Weather Cloud Vis
km
Sea
Height
m
Swell
Dir
 
Speed
knots
Gust
knots
hPa Trend Height
m
Period
s
Dir
22/11:30pm 17.9 SW 8 12 1015.2 - 0.0 - - - - - - -
22/11:00pm 17.9 SW 10 14 1015.3 - 0.0 - - - - - - -
22/10:30pm 18.0 SW 9 16 1015.3 - 0.0 - - - - - - -
22/10:00pm 18.2 SW 9 13 1015.5 - 0.0 - - - - - - -
22/09:30pm 18.3 SSW 7 10 1015.5 - 0.0 - - - - - - -
22/09:00pm 18.3 SW 10 15 1015.4 - 0.0 - - - - - - -
22/08:30pm 18.3 SW 8 13 1015.4 - 0.0 - - - - - - -
22/08:00pm 18.3 SW 5 8 1015.0 - 0.0 - - - - - - -
22/07:30pm 18.3 SSW 6 8 1015.1 - 0.0 - - - - - - -
22/07:00pm 18.2 SW 6 11 1015.0 - 0.0 - - - - - - -
22/06:30pm 18.1 SW 6 10 1014.8 - 0.0 - - - - - - -
22/06:00pm 18.5 SW 9 14 1014.5 - 0.0 - - - - - - -
22/05:30pm 19.1 SW 9 13 1014.4 - 0.0 - - - - - - -
22/05:00pm 19.8 WSW 10 14 1014.3 - 0.0 - - - - - - -
22/04:30pm 19.4 SW 12 17 1014.3 - 0.0 - - - - - - -
22/04:00pm 19.4 SW 12 17 1014.4 - 0.0 - - - - - - -
22/03:30pm 20.7 SW 12 17 1014.2 - 0.0 - - - - - - -
22/03:00pm 20.9 WSW 12 17 1014.3 - 0.0 - - - - - - -
22/02:30pm 21.2 WSW 12 16 1014.3 - 0.0 - - - - - - -
22/02:00pm 21.1 WSW 13 20 1014.3 - 0.0 - - - - - - -
22/01:30pm 21.2 WSW 11 16 1014.4 - 0.0 - - - - - - -
22/01:00pm 22.9 WSW 11 17 1014.3 - 0.0 - - - - - - -
22/12:30pm 22.5 WSW 10 14 1014.4 - 0.0 - - - - - - -
22/12:00pm 22.8 WSW 10 15 1014.2 - 0.0 - - - - - - -
22/11:30am 21.8 WSW 9 13 1014.1 - 0.0 - - - - - - -
22/11:00am 20.6 WSW 9 13 1014.2 - 0.0 - - - - - - -
22/10:30am 20.7 WSW 9 12 1014.2 - 0.0 - - - - - - -
22/10:00am 19.9 SW 10 14 1014.3 - 0.0 - - - - - - -
22/09:30am 19.4 WSW 9 14 1014.2 - 0.0 - - - - - - -
22/09:00am 20.3 SW 6 11 1014.1 - 0.4 - - - - - - -
22/08:30am 18.7 S 7 11 1014.1 - 0.4 - - - - - - -
22/08:00am 17.6 S 6 9 1014.0 - 0.4 - - - - - - -
22/07:30am 17.6 SSE 5 7 1013.8 - 0.4 - - - - - - -
22/07:00am 17.8 SSE 4 6 1013.5 - 0.4 - - - - - - -
22/06:30am 17.3 SSE 3 6 1013.2 - 0.4 - - - - - - -
22/06:00am 17.2 SSW 5 8 1013.0 - 0.4 - - - - - - -
22/05:30am 17.2 SSW 7 10 1012.7 - 0.4 - - - - - - -
22/05:00am 17.0 SSW 7 11 1012.4 - 0.4 - - - - - - -
22/04:30am 16.6 SSW 4 7 1012.1 - 0.4 - - - - - - -
22/04:00am 16.2 SW 5 8 1012.1 - 0.4 - - - - - - -
22/03:30am 16.8 WSW 5 8 1012.2 - 0.4 - - - - - - -
22/03:00am 16.7 S 4 7 1012.1 - 0.4 Recent precip. - - - - - -
22/02:30am 16.6 S 8 11 1012.0 - 0.4 - - - - - - -
22/02:00am 16.9 SSW 4 6 1012.0 - 0.0 - - - - - - -
22/01:30am 16.8 S 3 5 1012.1 - 0.0 - - - - - - -
22/01:00am 16.5 S 3 6 1012.4 - 0.0 - - - - - - -
22/12:30am 16.7 SSW 6 9 1012.6 - 0.0 - - - - - - -
22/12:00am 17.8 SW 6 10 1012.5 - 0.0 - - - - - - -
 
Date/Time
WST
Temp

°C
Wind Pressure Rain
since 9am
mm
Weather Cloud Vis
km
Sea
Height
m
Swell
Dir
 
Speed
knots
Gust
knots
hPa Trend Height
m
Period
s
Dir
21/11:30pm 17.7 WSW 7 10 1012.6 - 0.0 - - - - - - -
21/11:00pm 17.9 WSW 10 14 1012.7 - 0.0 - - - - - - -
21/10:30pm 18.0 SW 11 15 1012.8 - 0.0 - - - - - - -
21/10:00pm 18.1 WSW 7 11 1012.9 - 0.0 - - - - - - -
21/09:30pm 17.6 SSW 8 15 1013.0 - 0.0 - - - - - - -
21/09:00pm 17.6 WSW 8 12 1013.0 - 0.0 - - - - - - -
21/08:30pm 18.2 SW 4 7 1012.6 - 0.0 - - - - - - -
21/08:00pm 18.0 WSW 6 11 1012.5 - 0.0 - - - - - - -
21/07:30pm 17.9 SW 6 10 1012.4 - 0.0 - - - - - - -
21/07:00pm 18.0 SW 9 12 1012.2 - 0.0 - - - - - - -
21/06:30pm 19.0 SW 8 14 1012.1 - 0.0 - - - - - - -
21/06:00pm 19.8 WSW 8 12 1011.8 - 0.0 - - - - - - -
21/05:30pm 20.1 WSW 7 10 1011.7 - 0.0 - - - - - - -
21/05:00pm 20.8 WSW 10 15 1011.8 - 0.0 - - - - - - -
21/04:30pm 21.3 WSW 8 13 1011.8 - 0.0 - - - - - - -
21/04:00pm 21.6 WSW 11 16 1012.0 - 0.0 - - - - - - -
21/03:30pm 21.3 W 10 15 1012.1 - 0.0 - - - - - - -
21/03:00pm 21.8 WSW 9 15 1012.1 - 0.0 - - - - - - -
21/02:30pm 21.8 WSW 10 17 1012.1 - 0.0 - - - - - - -
21/02:00pm 22.3 W 10 15 1011.9 - 0.0 - - - - - - -
21/01:30pm 22.7 WSW 9 15 1012.0 - 0.0 - - - - - - -

Other Formats:

Comma delimited format used in spreadsheet applications
http://www.bom.gov.au/fwo/IDW60701/IDW60701.94605.axf

JavaScript Object Notation format (JSON) in row-major order
http://www.bom.gov.au/fwo/IDW60701/IDW60701.94605.json